sim
Sign-in with your pilot id or email,
or register
Callsign
Passwort

Schedule Details

Flight Number: DLH2395
Departure: Basel Mulhouse-Freiburg EuroAirport (LFSB) at 08:45
Arrival: Munich Airport (EDDM) at 09:45
Route: Lufthansa Passenger Schedule. Enter filed route here before submitting Pirep.

Weather Information
Getting current METAR information for LFSB 250630Z 24006KT 9999 FEW010 BKN130 11/07 Q1003 NOSIG
Getting current METAR information for EDDM 250650Z 20007KT 9999 RA FEW020 BKN040 12/11 Q1001 TEMPO 28015G25KT

Schedule Frequency

Route Map